Briefing drone pour Bron (LFLY)

Rechercher une autre localisation

Conditions de vol :


Nous sommes le : Samedi 24 février 2024
Il est 22:37 UTC (23:37 LT)

Lever de soleil : 06:01 UTC (07:01 LT)
Coucher de soleil : 17:45 UTC (18:45 LT)

Météo

L'essentiel des conditions de vol

VIGILANCE MÉTÉO FRANCE - Rhône (69)
Pas de vigilances particulieres
METAR de LFLY
LFLY 242230Z AUTO 17003KT CAVOK 04/01 Q1009

Date d'émission: 24/02/2024
Heure d'émission: 22:30 UTC
Vent: 170° pour 3 KT (6 km/h)
Visibilité horizontale: > 10 km
Plafond : Plafond et visibilité OK (CAVOK)
Température: 4 °C
Point de rosée: 1 °C
Humidité: 81%
Pression (QNH): 1009 hPa
TAF de LFLY
LFLY 242200Z 2422/2518 CNL

Conditions prévues :

Heure d'émission : Bulletin éffectué le 24 à 22:00 UTC
Prévision : Valide du 24 a 22:00 UTC au 25 a 18:00 UTC
Nuages : à 0ft (0 m)
WEBCAM POUR BRON

Réglementation

Voler en sécurité

CARTES AERONAUTIQUE 1/500.000
CARTE AZBA (Reseau basse altitude)
CARTES VAC (LFLY)
SUP AIP




Chargement des AIP...
NOTAM (BRON + Terrain à proximité / FIR )




Chargement des NOTAMS...
CONTACT PREFECTURE 69
Rhône (69) : [email protected]


Avertissement : Les données mises à disposition sont indicatives. Oxygène Drone ne pourra être tenu responsable de dégâts causés aux biens et aux personnes.